createdAt,value
2022-12-08T00:01:28.585Z,14.88
2022-12-08T00:03:56.475Z,15.30
2022-12-08T00:06:50.075Z,14.85
2022-12-08T00:09:23.488Z,16.13
2022-12-08T00:12:26.675Z,13.73
2022-12-08T00:14:54.551Z,15.20
2022-12-08T00:17:21.213Z,17.77
2022-12-08T00:19:47.761Z,16.80
2022-12-08T00:22:15.169Z,15.10
2022-12-08T00:24:44.906Z,14.93
2022-12-08T00:27:14.823Z,15.93
2022-12-08T00:29:44.061Z,14.15
2022-12-08T00:32:10.751Z,16.95
2022-12-08T00:34:37.363Z,14.15
2022-12-08T00:37:03.929Z,14.25
2022-12-08T00:39:30.618Z,12.32
2022-12-08T00:42:12.318Z,12.98
2022-12-08T00:44:39.916Z,14.60
2022-12-08T00:47:06.538Z,13.07
2022-12-08T00:49:33.219Z,13.38
2022-12-08T00:51:59.872Z,13.10
2022-12-08T00:54:26.873Z,11.32
2022-12-08T00:56:53.551Z,14.32
2022-12-08T00:59:20.017Z,10.98
2022-12-08T01:01:47.689Z,11.85
2022-12-08T01:04:16.719Z,10.57
2022-12-08T01:06:44.403Z,11.93
2022-12-08T01:09:12.468Z,11.82
2022-12-08T01:11:39.188Z,12.43
2022-12-08T01:14:05.667Z,10.57
2022-12-08T01:16:35.235Z,12.00
2022-12-08T01:19:02.123Z,11.77
2022-12-08T01:21:29.345Z,11.52
2022-12-08T01:23:57.927Z,10.88
2022-12-08T01:26:24.500Z,11.90
2022-12-08T01:28:51.075Z,10.02
2022-12-08T01:31:20.584Z,10.82
2022-12-08T01:33:48.082Z,12.52
2022-12-08T01:36:26.714Z,14.13
2022-12-08T01:38:54.971Z,10.90
2022-12-08T01:41:24.119Z,10.60
2022-12-08T01:44:02.419Z,10.75
2022-12-08T01:46:31.913Z,9.05
2022-12-08T01:49:15.163Z,9.25
2022-12-08T01:52:14.230Z,10.75
2022-12-08T01:54:49.275Z,9.55
2022-12-08T01:57:25.498Z,9.90
2022-12-08T02:00:00.637Z,9.93
2022-12-08T02:02:34.281Z,8.15
2022-12-08T02:05:02.239Z,10.27
2022-12-08T02:07:29.389Z,8.40
2022-12-08T02:09:56.393Z,9.65
2022-12-08T02:12:23.001Z,9.27
2022-12-08T02:14:49.683Z,8.50
2022-12-08T02:17:38.956Z,7.43
2022-12-08T02:20:16.887Z,10.65
2022-12-08T02:23:07.929Z,11.35
2022-12-08T02:25:55.676Z,11.68
2022-12-08T02:28:48.203Z,7.40
2022-12-08T02:31:51.768Z,10.98
2022-12-08T02:34:34.442Z,9.25
2022-12-08T02:37:19.403Z,10.98
2022-12-08T02:40:12.418Z,11.63
2022-12-08T02:42:58.649Z,9.93
2022-12-08T02:45:33.393Z,9.95
2022-12-08T02:48:00.485Z,9.07
2022-12-08T02:50:28.615Z,9.07
2022-12-08T02:52:55.261Z,11.18
2022-12-08T02:55:47.930Z,7.68
2022-12-08T02:58:35.305Z,12.15
2022-12-08T03:01:24.995Z,10.65
2022-12-08T03:04:13.401Z,10.13
2022-12-08T03:06:55.349Z,9.55
2022-12-08T03:09:29.745Z,7.63
2022-12-08T03:12:13.908Z,8.85
2022-12-08T03:14:45.544Z,7.53
2022-12-08T03:17:14.428Z,11.43
2022-12-08T03:19:43.016Z,9.60
2022-12-08T03:22:12.129Z,10.02
2022-12-08T03:24:41.908Z,7.70
2022-12-08T03:27:16.645Z,9.88
2022-12-08T03:29:43.610Z,8.55
2022-12-08T03:32:39.346Z,9.25
2022-12-08T03:35:11.974Z,10.68
2022-12-08T03:37:39.956Z,8.38
2022-12-08T03:40:09.890Z,10.52
2022-12-08T03:42:36.369Z,9.25
2022-12-08T03:45:04.077Z,9.10
2022-12-08T03:47:30.806Z,7.80
2022-12-08T03:49:57.319Z,11.63
2022-12-08T03:52:23.951Z,9.60
2022-12-08T03:54:50.454Z,7.38
2022-12-08T03:57:17.308Z,8.93
2022-12-08T03:59:43.813Z,8.80
2022-12-08T04:02:10.402Z,9.23
2022-12-08T04:04:36.917Z,9.52
2022-12-08T04:07:03.432Z,9.90
2022-12-08T04:09:30.054Z,11.85
2022-12-08T04:11:56.541Z,11.15
2022-12-08T04:14:23.051Z,9.15
2022-12-08T04:16:49.546Z,9.80
2022-12-08T04:19:16.025Z,12.48
2022-12-08T04:21:42.569Z,11.30
2022-12-08T04:24:09.403Z,10.75
2022-12-08T04:26:35.916Z,9.65
2022-12-08T04:29:02.460Z,8.95
2022-12-08T04:31:29.065Z,9.35
2022-12-08T04:33:55.745Z,11.45
2022-12-08T04:36:22.229Z,11.25
2022-12-08T04:38:48.795Z,8.43
2022-12-08T04:41:15.333Z,10.98
2022-12-08T04:43:44.273Z,9.13
2022-12-08T04:46:11.340Z,10.25
2022-12-08T04:48:38.490Z,10.40
2022-12-08T04:51:05.180Z,9.07
2022-12-08T04:53:32.318Z,9.02
2022-12-08T04:55:59.110Z,9.63
2022-12-08T04:58:25.657Z,9.57
2022-12-08T05:00:52.280Z,9.15
2022-12-08T05:03:22.546Z,9.27
2022-12-08T05:05:53.309Z,9.20
2022-12-08T05:08:19.973Z,9.02
2022-12-08T05:10:46.597Z,9.98
2022-12-08T05:13:13.061Z,8.88
2022-12-08T05:15:39.573Z,7.70
2022-12-08T05:18:07.223Z,9.25
2022-12-08T05:20:34.311Z,7.72
2022-12-08T05:23:00.883Z,7.45
2022-12-08T05:25:27.877Z,7.60
2022-12-08T05:28:06.245Z,7.80
2022-12-08T05:30:38.130Z,9.23
2022-12-08T05:33:04.764Z,8.40
2022-12-08T05:35:31.353Z,7.68
2022-12-08T05:37:57.878Z,7.55
2022-12-08T05:40:24.363Z,7.43
2022-12-08T05:42:50.908Z,7.72
2022-12-08T05:45:17.445Z,7.13
2022-12-08T05:47:44.051Z,7.57
2022-12-08T05:50:11.076Z,9.90
2022-12-08T05:52:37.614Z,7.35
2022-12-08T05:55:04.322Z,6.53
2022-12-08T05:57:30.809Z,6.25
2022-12-08T05:59:59.486Z,5.70
2022-12-08T06:02:26.816Z,7.10
2022-12-08T06:04:53.552Z,7.93
2022-12-08T06:07:20.351Z,5.55
2022-12-08T06:09:47.062Z,6.35
2022-12-08T06:12:13.750Z,5.38
2022-12-08T06:14:40.630Z,6.43
2022-12-08T06:17:07.297Z,6.30
2022-12-08T06:19:33.828Z,5.68
2022-12-08T06:22:00.508Z,6.25
2022-12-08T06:24:27.451Z,5.63
2022-12-08T06:26:53.950Z,5.70
2022-12-08T06:29:20.551Z,5.93
2022-12-08T06:31:47.141Z,4.45
2022-12-08T06:34:13.917Z,5.47
2022-12-08T06:36:40.429Z,5.60
2022-12-08T06:39:06.943Z,6.55
2022-12-08T06:41:53.537Z,7.22
2022-12-08T06:44:20.160Z,6.03
2022-12-08T06:46:46.721Z,6.50
2022-12-08T06:49:13.236Z,5.72
2022-12-08T06:51:39.749Z,6.47
2022-12-08T06:54:06.295Z,6.03
2022-12-08T06:56:33.125Z,6.07
2022-12-08T06:58:59.625Z,5.88
2022-12-08T07:01:26.248Z,6.05
2022-12-08T07:03:52.796Z,5.20
2022-12-08T07:06:22.844Z,5.55
2022-12-08T07:08:49.793Z,5.80
2022-12-08T07:11:21.451Z,6.22
2022-12-08T07:13:49.643Z,4.95
2022-12-08T07:16:16.339Z,5.93
2022-12-08T07:18:44.069Z,8.18
2022-12-08T07:21:14.858Z,6.65
2022-12-08T07:23:42.954Z,5.60
2022-12-08T07:26:11.846Z,6.45
2022-12-08T07:28:41.302Z,7.40
2022-12-08T07:31:16.314Z,7.22
2022-12-08T07:33:43.267Z,6.68
2022-12-08T07:36:10.121Z,6.85
2022-12-08T07:38:36.645Z,7.28
2022-12-08T07:41:03.256Z,7.55
2022-12-08T07:43:29.799Z,7.68
2022-12-08T07:45:56.422Z,7.97
2022-12-08T07:48:22.958Z,9.20
2022-12-08T07:50:49.570Z,8.52
2022-12-08T07:53:16.125Z,8.52
2022-12-08T07:55:43.691Z,7.88
2022-12-08T07:58:10.796Z,8.48
2022-12-08T08:00:37.476Z,8.20
2022-12-08T08:03:04.204Z,7.93
2022-12-08T08:05:30.750Z,8.27
2022-12-08T08:07:57.342Z,7.70
2022-12-08T08:10:23.979Z,8.85
2022-12-08T08:12:50.564Z,9.20
2022-12-08T08:15:17.889Z,10.57
2022-12-08T08:17:44.546Z,11.05
2022-12-08T08:20:11.609Z,9.65
2022-12-08T08:22:38.094Z,8.95
2022-12-08T08:25:05.648Z,9.80
2022-12-08T08:27:32.197Z,10.65
2022-12-08T08:29:58.822Z,9.38
2022-12-08T08:32:25.445Z,10.10
2022-12-08T08:34:52.134Z,10.48
2022-12-08T08:37:18.867Z,9.70
2022-12-08T08:39:45.400Z,10.68
2022-12-08T08:42:11.943Z,9.65
2022-12-08T08:44:39.031Z,10.00
2022-12-08T08:47:05.836Z,9.55
2022-12-08T08:49:32.493Z,9.45
2022-12-08T08:51:59.199Z,10.15
2022-12-08T08:54:25.779Z,9.13
2022-12-08T08:56:52.710Z,8.88
2022-12-08T08:59:19.317Z,11.85
2022-12-08T09:01:45.964Z,8.85
2022-12-08T09:04:12.676Z,10.02
2022-12-08T09:06:39.357Z,9.65
2022-12-08T09:09:06.333Z,10.45
2022-12-08T09:11:33.186Z,9.85
2022-12-08T09:13:59.733Z,10.00
2022-12-08T09:16:26.486Z,11.20
2022-12-08T09:18:53.116Z,12.05
2022-12-08T09:21:23.248Z,11.77
2022-12-08T09:23:55.069Z,12.38
2022-12-08T09:26:22.502Z,11.98
2022-12-08T09:28:50.622Z,12.35
2022-12-08T09:31:18.972Z,10.82
2022-12-08T09:33:47.471Z,11.00
2022-12-08T09:36:14.596Z,11.90
2022-12-08T09:38:41.206Z,11.07
2022-12-08T09:41:17.316Z,10.00
2022-12-08T09:43:58.448Z,11.38
2022-12-08T09:46:28.684Z,13.05
2022-12-08T09:48:58.995Z,12.43
2022-12-08T09:51:28.989Z,11.82
2022-12-08T09:53:59.982Z,11.18
2022-12-08T09:56:30.673Z,12.77
2022-12-08T09:59:02.302Z,12.15
2022-12-08T10:01:31.690Z,12.63
2022-12-08T10:03:59.111Z,11.25
2022-12-08T10:06:47.098Z,13.77
2022-12-08T10:09:31.876Z,12.75
2022-12-08T10:12:19.735Z,13.07
2022-12-08T10:15:10.612Z,16.30
2022-12-08T10:17:48.688Z,12.60
2022-12-08T10:20:18.112Z,13.85
2022-12-08T10:22:51.978Z,15.07
2022-12-08T10:25:28.517Z,14.57
2022-12-08T10:27:55.185Z,12.48
2022-12-08T10:30:22.314Z,14.57
2022-12-08T10:32:50.972Z,14.18
2022-12-08T10:35:19.397Z,14.95
2022-12-08T10:38:01.669Z,11.45
2022-12-08T10:40:39.123Z,10.10
2022-12-08T10:43:17.849Z,10.90
2022-12-08T10:45:44.992Z,9.77
2022-12-08T10:48:16.958Z,10.10
2022-12-08T10:50:53.981Z,10.18
2022-12-08T10:53:23.992Z,9.48
2022-12-08T10:56:02.631Z,10.13
2022-12-08T10:59:00.405Z,10.70
2022-12-08T11:01:34.273Z,9.65
2022-12-08T11:06:28.574Z,11.65
2022-12-08T11:08:56.312Z,9.27
2022-12-08T11:11:38.920Z,7.88
2022-12-08T11:14:14.093Z,9.30
2022-12-08T11:16:43.052Z,7.20
2022-12-08T11:19:15.949Z,10.27
2022-12-08T11:21:43.812Z,8.60
2022-12-08T11:24:37.616Z,8.60
2022-12-08T11:27:06.378Z,6.28
2022-12-08T11:29:35.257Z,5.70
2022-12-08T11:32:11.878Z,8.55
2022-12-08T11:34:46.266Z,5.20
2022-12-08T11:37:35.245Z,7.32
2022-12-08T11:40:16.319Z,5.15
2022-12-08T11:43:00.959Z,4.28
2022-12-08T11:45:32.059Z,4.68
2022-12-08T11:48:09.768Z,6.07
2022-12-08T11:50:49.376Z,4.22
2022-12-08T11:53:24.914Z,5.80
2022-12-08T11:55:57.549Z,5.13
2022-12-08T11:58:34.852Z,5.03
2022-12-08T12:01:01.690Z,4.30
2022-12-08T12:03:35.792Z,4.35
2022-12-08T12:06:54.365Z,4.30
2022-12-08T12:09:25.040Z,4.35
2022-12-08T12:12:25.656Z,4.43
2022-12-08T12:15:16.266Z,4.28
2022-12-08T12:18:08.070Z,3.05
2022-12-08T12:20:46.773Z,3.20
2022-12-08T12:23:24.086Z,4.43
2022-12-08T12:26:02.417Z,3.63
2022-12-08T12:29:02.954Z,4.85
2022-12-08T12:31:33.542Z,3.92
2022-12-08T12:34:25.558Z,3.53
2022-12-08T12:36:57.320Z,2.70
2022-12-08T12:39:29.228Z,2.67
2022-12-08T12:42:01.374Z,2.10
2022-12-08T12:44:27.796Z,3.13
2022-12-08T12:47:00.753Z,2.65
2022-12-08T12:49:39.570Z,2.95
2022-12-08T12:52:15.390Z,3.58
2022-12-08T12:55:11.158Z,2.33
2022-12-08T12:57:40.099Z,3.70
2022-12-08T13:00:09.898Z,2.55
2022-12-08T13:02:36.745Z,4.65
2022-12-08T13:05:10.824Z,3.28
2022-12-08T13:10:16.017Z,2.72
2022-12-08T13:12:45.194Z,3.85
2022-12-08T13:15:19.801Z,2.47
2022-12-08T13:17:49.097Z,1.90
2022-12-08T13:20:21.825Z,2.20
2022-12-08T13:22:50.372Z,1.95
2022-12-08T13:25:38.715Z,2.08
2022-12-08T13:28:24.874Z,2.90
2022-12-08T13:30:59.496Z,1.88
2022-12-08T13:33:40.979Z,2.50
2022-12-08T13:36:22.271Z,3.30
2022-12-08T13:38:55.862Z,2.08
2022-12-08T13:41:29.048Z,1.85
2022-12-08T13:45:03.581Z,3.83
2022-12-08T13:47:24.617Z,4.07
2022-12-08T13:51:10.559Z,2.63
2022-12-08T13:58:28.461Z,2.78
2022-12-08T14:01:14.787Z,3.53
2022-12-08T14:04:37.648Z,2.60
2022-12-08T14:07:02.571Z,2.47
2022-12-08T14:09:34.944Z,3.67
2022-12-08T14:12:21.862Z,3.03
2022-12-08T14:15:06.747Z,4.47
2022-12-08T14:17:33.559Z,2.83
2022-12-08T14:20:01.294Z,5.68
2022-12-08T14:22:38.888Z,3.75
2022-12-08T14:25:08.018Z,5.05
2022-12-08T14:27:36.979Z,2.50
2022-12-08T14:30:15.853Z,4.75
2022-12-08T14:32:58.586Z,3.97
2022-12-08T14:35:26.964Z,3.88
2022-12-08T14:38:12.865Z,3.92
2022-12-08T14:40:44.353Z,3.90
2022-12-08T14:43:10.753Z,4.28
2022-12-08T14:45:40.211Z,3.22
2022-12-08T14:48:25.819Z,3.33
2022-12-08T14:50:57.228Z,3.08
2022-12-08T14:53:24.825Z,3.88
2022-12-08T14:55:51.926Z,2.70
2022-12-08T14:58:24.002Z,2.88
2022-12-08T15:00:54.401Z,3.63
2022-12-08T15:03:23.232Z,3.95
2022-12-08T15:05:59.657Z,3.60
2022-12-08T15:08:26.457Z,4.10
2022-12-08T15:11:12.496Z,4.10
2022-12-08T15:13:46.781Z,4.45
2022-12-08T15:16:37.820Z,3.75
2022-12-08T15:19:28.295Z,4.03
2022-12-08T15:21:58.142Z,4.57
2022-12-08T15:24:28.268Z,5.90
2022-12-08T15:26:55.077Z,4.97
2022-12-08T15:29:29.601Z,4.75
2022-12-08T15:31:59.677Z,6.65
2022-12-08T15:34:26.142Z,5.72
2022-12-08T15:36:54.333Z,5.57
2022-12-08T15:39:32.960Z,6.45
2022-12-08T15:42:00.168Z,9.25
2022-12-08T15:44:27.031Z,8.25
2022-12-08T15:46:53.876Z,8.75
2022-12-08T15:49:23.171Z,6.43
2022-12-08T15:51:53.573Z,6.03
2022-12-08T15:54:23.052Z,6.20
2022-12-08T15:57:17.860Z,6.15
2022-12-08T15:59:38.910Z,7.50
2022-12-08T16:02:05.367Z,4.78
2022-12-08T16:07:23.338Z,12.07
2022-12-08T16:09:49.985Z,13.15
2022-12-08T16:13:48.074Z,10.88
2022-12-08T16:15:51.802Z,9.10
2022-12-08T16:18:27.450Z,9.32
2022-12-08T16:23:43.565Z,11.25
2022-12-08T16:27:01.205Z,8.05
2022-12-08T16:29:06.760Z,7.10
2022-12-08T16:31:33.793Z,9.30
2022-12-08T16:34:00.487Z,7.53
2022-12-08T16:36:26.952Z,8.07
2022-12-08T16:38:53.403Z,8.07
2022-12-08T16:41:38.772Z,9.07
2022-12-08T16:44:06.225Z,8.13
2022-12-08T16:46:33.622Z,9.88
2022-12-08T16:49:00.170Z,8.02
2022-12-08T16:51:27.553Z,9.02
2022-12-08T16:53:55.389Z,8.77
2022-12-08T16:56:27.508Z,8.70
2022-12-08T16:58:57.067Z,9.60
2022-12-08T17:01:23.792Z,10.45
2022-12-08T17:04:14.420Z,10.80
2022-12-08T17:06:36.737Z,10.55
2022-12-08T17:09:03.305Z,11.70
2022-12-08T17:11:37.432Z,12.48
2022-12-08T17:14:05.713Z,11.40
2022-12-08T17:16:32.230Z,11.43
2022-12-08T17:18:58.690Z,11.65
2022-12-08T17:21:25.134Z,12.15
2022-12-08T17:23:51.635Z,11.27
2022-12-08T17:26:18.075Z,11.77
2022-12-08T17:29:00.050Z,11.60
2022-12-08T17:31:29.903Z,11.68
2022-12-08T17:34:05.469Z,14.35
2022-12-08T17:36:32.038Z,12.52
2022-12-08T17:39:00.366Z,11.88
2022-12-08T17:41:27.397Z,15.40
2022-12-08T17:43:54.625Z,15.60
2022-12-08T17:46:22.254Z,16.55
2022-12-08T17:48:49.237Z,19.38
2022-12-08T17:51:15.834Z,16.45
2022-12-08T17:53:42.375Z,23.23
2022-12-08T17:56:18.324Z,19.25
2022-12-08T17:58:45.626Z,19.45
2022-12-08T18:01:13.945Z,19.70
2022-12-08T18:03:40.354Z,20.42
2022-12-08T18:06:12.282Z,16.65
2022-12-08T18:08:39.810Z,22.02
2022-12-08T18:11:12.165Z,19.00
2022-12-08T18:13:38.602Z,17.88
2022-12-08T18:16:05.097Z,18.05
2022-12-08T18:18:31.547Z,19.42
2022-12-08T18:20:58.200Z,16.95
2022-12-08T18:23:24.656Z,18.17
2022-12-08T18:25:51.203Z,27.80
2022-12-08T18:28:17.685Z,24.90
2022-12-08T18:30:44.282Z,21.88
2022-12-08T18:33:11.189Z,21.73
2022-12-08T18:35:39.414Z,23.92
2022-12-08T18:38:05.946Z,25.95
2022-12-08T18:40:32.468Z,22.90
2022-12-08T18:42:59.204Z,23.25
2022-12-08T18:45:25.675Z,21.02
2022-12-08T18:47:52.368Z,22.52
2022-12-08T18:50:19.117Z,22.00
2022-12-08T18:52:46.956Z,21.50
2022-12-08T18:55:14.663Z,21.42
2022-12-08T18:57:43.201Z,21.55
2022-12-08T19:00:15.547Z,22.90
2022-12-08T19:02:43.463Z,21.75
2022-12-08T19:05:12.242Z,21.92
2022-12-08T19:07:39.528Z,20.85
2022-12-08T19:10:07.517Z,21.33
2022-12-08T19:12:36.892Z,20.67
2022-12-08T19:15:10.433Z,23.58
2022-12-08T19:17:54.088Z,26.75
2022-12-08T19:20:21.816Z,22.65
2022-12-08T19:22:48.337Z,22.33
2022-12-08T19:25:14.909Z,22.17
2022-12-08T19:27:41.847Z,24.48
2022-12-08T19:30:10.794Z,25.35
2022-12-08T19:32:37.371Z,25.42
2022-12-08T19:35:07.274Z,23.00
2022-12-08T19:37:35.189Z,21.95
2022-12-08T19:40:20.622Z,23.60
2022-12-08T19:43:05.403Z,22.50
2022-12-08T19:45:35.154Z,22.67
2022-12-08T19:48:01.837Z,21.60
2022-12-08T19:50:37.675Z,20.90
2022-12-08T19:53:13.352Z,19.17
2022-12-08T19:55:40.598Z,21.27
2022-12-08T19:58:08.023Z,21.05
2022-12-08T20:00:35.884Z,21.60
2022-12-08T20:03:03.831Z,22.05
2022-12-08T20:05:31.980Z,22.08
2022-12-08T20:07:58.570Z,20.48
2022-12-08T20:10:36.575Z,21.27
2022-12-08T20:13:23.289Z,22.95
2022-12-08T20:15:50.390Z,23.80
2022-12-08T20:18:17.964Z,24.25
2022-12-08T20:20:46.253Z,23.33
2022-12-08T20:23:13.904Z,25.88
2022-12-08T20:25:42.810Z,23.05
2022-12-08T20:28:09.995Z,22.83
2022-12-08T20:30:41.371Z,26.60
2022-12-08T20:33:07.976Z,24.83
2022-12-08T20:35:34.798Z,26.38
2022-12-08T20:38:01.385Z,25.17
2022-12-08T20:40:28.102Z,29.30
2022-12-08T20:42:54.660Z,27.00
2022-12-08T20:45:21.310Z,29.42
2022-12-08T20:47:47.941Z,29.05
2022-12-08T20:50:14.716Z,32.17
2022-12-08T20:52:41.264Z,31.52
2022-12-08T20:55:08.570Z,31.00
2022-12-08T20:57:35.265Z,32.30
2022-12-08T21:00:02.042Z,31.83
2022-12-08T21:02:28.874Z,30.52
2022-12-08T21:04:55.972Z,32.30
2022-12-08T21:07:22.537Z,30.85
2022-12-08T21:09:49.161Z,29.45
2022-12-08T21:12:15.902Z,29.33
2022-12-08T21:14:42.700Z,29.45
2022-12-08T21:17:09.401Z,30.30
2022-12-08T21:19:36.874Z,27.92
2022-12-08T21:22:03.812Z,29.30
2022-12-08T21:24:33.985Z,30.60
2022-12-08T21:27:01.534Z,27.70
2022-12-08T21:29:28.076Z,28.88
2022-12-08T21:31:57.321Z,28.35
2022-12-08T21:34:25.177Z,29.15
2022-12-08T21:36:52.865Z,27.80
2022-12-08T21:39:20.756Z,27.95
2022-12-08T21:42:07.373Z,26.08
2022-12-08T21:44:38.459Z,25.17
2022-12-08T21:47:08.515Z,29.15
2022-12-08T21:49:37.386Z,24.63
2022-12-08T21:52:07.269Z,28.17
2022-12-08T21:54:38.447Z,25.73
2022-12-08T21:57:08.068Z,26.58
2022-12-08T21:59:38.431Z,27.13
2022-12-08T22:02:11.280Z,27.77
2022-12-08T22:04:43.677Z,29.02
2022-12-08T22:07:13.780Z,27.40
2022-12-08T22:09:43.839Z,28.90
2022-12-08T22:12:13.916Z,28.33
2022-12-08T22:14:45.061Z,26.92
2022-12-08T22:17:15.566Z,28.55
2022-12-08T22:19:45.985Z,26.98
2022-12-08T22:22:16.572Z,27.55
2022-12-08T22:24:47.138Z,27.17
2022-12-08T22:27:17.354Z,24.73
2022-12-08T22:29:49.455Z,25.77
2022-12-08T22:32:18.864Z,25.80
2022-12-08T22:34:49.913Z,24.88
2022-12-08T22:37:18.757Z,23.23
2022-12-08T22:39:49.517Z,24.10
2022-12-08T22:42:21.117Z,23.23
2022-12-08T22:44:48.833Z,22.58
2022-12-08T22:47:15.525Z,22.38
2022-12-08T22:49:42.224Z,26.48
2022-12-08T22:52:09.088Z,29.63
2022-12-08T22:54:35.837Z,21.60
2022-12-08T22:57:02.384Z,22.52
2022-12-08T22:59:29.393Z,21.58
2022-12-08T23:01:55.985Z,20.23
2022-12-08T23:04:22.607Z,18.50
2022-12-08T23:06:49.329Z,20.92
2022-12-08T23:09:16.033Z,21.95
2022-12-08T23:11:44.183Z,21.63
2022-12-08T23:14:11.244Z,21.13
2022-12-08T23:16:38.262Z,20.38
2022-12-08T23:19:05.015Z,19.33
2022-12-08T23:21:31.769Z,21.55
2022-12-08T23:24:00.920Z,21.58
2022-12-08T23:26:30.401Z,20.33
2022-12-08T23:28:57.333Z,21.48
2022-12-08T23:31:25.642Z,19.77
2022-12-08T23:33:53.362Z,23.08
2022-12-08T23:36:21.985Z,19.85
2022-12-08T23:38:49.231Z,24.00
2022-12-08T23:41:16.596Z,19.92
2022-12-08T23:43:48.830Z,21.05
2022-12-08T23:46:17.248Z,20.88
2022-12-08T23:48:44.654Z,20.10
2022-12-08T23:51:11.658Z,20.67
2022-12-08T23:53:39.032Z,22.08
2022-12-08T23:56:08.223Z,21.08
2022-12-08T23:58:35.613Z,19.77
